createdAt,value
2022-11-13T00:01:16.326Z,33.20
2022-11-13T00:03:44.478Z,29.90
2022-11-13T00:06:13.400Z,30.93
2022-11-13T00:08:43.135Z,31.13
2022-11-13T00:11:13.341Z,33.30
2022-11-13T00:13:41.400Z,29.77
2022-11-13T00:16:12.689Z,30.43
2022-11-13T00:18:40.682Z,29.87
2022-11-13T00:21:10.257Z,33.73
2022-11-13T00:23:38.543Z,28.93
2022-11-13T00:26:09.180Z,33.20
2022-11-13T00:28:37.117Z,30.60
2022-11-13T00:31:06.114Z,30.00
2022-11-13T00:36:26.261Z,28.03
2022-11-13T00:38:55.136Z,28.73
2022-11-13T00:41:24.559Z,29.33
2022-11-13T00:43:52.625Z,32.00
2022-11-13T00:46:20.739Z,27.00
2022-11-13T00:48:48.457Z,27.27
2022-11-13T00:51:16.162Z,27.00
2022-11-13T00:53:43.923Z,24.80
2022-11-13T00:56:11.848Z,24.80
2022-11-13T00:58:41.168Z,25.10
2022-11-13T01:01:12.265Z,26.40
2022-11-13T01:03:40.737Z,23.93
2022-11-13T01:06:13.366Z,24.50
2022-11-13T01:08:41.549Z,24.67
2022-11-13T01:11:11.079Z,23.90
2022-11-13T01:13:40.317Z,24.80
2022-11-13T01:16:10.367Z,27.40
2022-11-13T01:18:38.517Z,27.47
2022-11-13T01:21:09.411Z,21.97
2022-11-13T01:23:37.733Z,23.97
2022-11-13T01:26:10.674Z,23.93
2022-11-13T01:28:40.921Z,28.00
2022-11-13T01:31:09.724Z,26.87
2022-11-13T01:33:37.670Z,25.67
2022-11-13T01:36:08.143Z,23.83
2022-11-13T01:38:37.319Z,27.30
2022-11-13T01:41:06.249Z,23.37
2022-11-13T01:43:35.316Z,23.03
2022-11-13T01:46:19.934Z,22.67
2022-11-13T01:48:52.601Z,24.33
2022-11-13T01:51:26.927Z,24.37
2022-11-13T01:53:55.108Z,21.80
2022-11-13T01:56:23.504Z,27.17
2022-11-13T01:58:56.520Z,23.13
2022-11-13T02:01:26.097Z,23.37
2022-11-13T02:03:54.010Z,22.60
2022-11-13T02:06:22.529Z,27.17
2022-11-13T02:08:51.858Z,25.13
2022-11-13T02:11:20.794Z,23.03
2022-11-13T02:13:49.126Z,26.13
2022-11-13T02:16:17.831Z,24.07
2022-11-13T02:18:47.206Z,25.03
2022-11-13T02:21:24.172Z,24.00
2022-11-13T02:23:59.248Z,21.93
2022-11-13T02:26:30.201Z,22.43
2022-11-13T02:28:57.924Z,26.87
2022-11-13T02:31:25.763Z,21.47
2022-11-13T02:33:53.480Z,24.50
2022-11-13T02:36:24.843Z,21.77
2022-11-13T02:38:55.092Z,20.47
2022-11-13T02:41:22.820Z,19.17
2022-11-13T02:43:51.879Z,24.07
2022-11-13T02:46:19.573Z,17.30
2022-11-13T02:48:47.278Z,17.77
2022-11-13T02:51:15.019Z,16.90
2022-11-13T02:53:42.741Z,19.60
2022-11-13T02:56:10.433Z,19.27
2022-11-13T02:58:38.191Z,20.17
2022-11-13T03:01:07.628Z,17.90
2022-11-13T03:06:23.235Z,19.10
2022-11-13T03:08:50.929Z,19.00
2022-11-13T03:11:18.620Z,19.77
2022-11-13T03:13:46.328Z,16.47
2022-11-13T03:16:17.240Z,16.17
2022-11-13T03:18:44.979Z,15.47
2022-11-13T03:21:14.565Z,15.13
2022-11-13T03:23:45.003Z,19.57
2022-11-13T03:26:15.510Z,19.30
2022-11-13T03:28:43.768Z,15.90
2022-11-13T03:31:11.696Z,15.60
2022-11-13T03:33:40.805Z,17.00
2022-11-13T03:36:09.224Z,14.70
2022-11-13T03:38:37.191Z,15.53
2022-11-13T03:41:05.424Z,15.53
2022-11-13T03:43:33.150Z,13.30
2022-11-13T03:46:00.888Z,13.30
2022-11-13T03:48:28.848Z,14.33
2022-11-13T03:50:58.140Z,15.47
2022-11-13T03:53:25.836Z,15.33
2022-11-13T03:55:54.132Z,13.73
2022-11-13T03:58:21.921Z,14.63
2022-11-13T04:00:50.955Z,19.70
2022-11-13T04:03:18.642Z,17.40
2022-11-13T04:05:48.641Z,21.03
2022-11-13T04:08:17.809Z,22.40
2022-11-13T04:10:46.463Z,18.13
2022-11-13T04:13:14.197Z,16.13
2022-11-13T04:15:41.879Z,16.07
2022-11-13T04:18:09.602Z,14.97
2022-11-13T04:20:37.398Z,16.20
2022-11-13T04:23:07.875Z,17.37
2022-11-13T04:25:36.903Z,11.97
2022-11-13T04:28:04.687Z,17.03
2022-11-13T04:30:32.375Z,16.30
2022-11-13T04:33:00.180Z,15.37
2022-11-13T04:35:27.939Z,16.63
2022-11-13T04:37:55.684Z,13.37
2022-11-13T04:40:23.362Z,13.87
2022-11-13T04:42:51.506Z,14.47
2022-11-13T04:45:20.579Z,14.33
2022-11-13T04:47:48.897Z,11.27
2022-11-13T04:50:17.553Z,16.40
2022-11-13T04:52:46.011Z,14.40
2022-11-13T04:55:13.992Z,14.73
2022-11-13T04:57:42.148Z,15.90
2022-11-13T05:00:12.479Z,13.67
2022-11-13T05:02:40.133Z,13.73
2022-11-13T05:05:08.743Z,13.20
2022-11-13T05:07:36.421Z,15.40
2022-11-13T05:10:04.489Z,17.03
2022-11-13T05:12:32.171Z,16.83
2022-11-13T05:14:59.846Z,15.37
2022-11-13T05:17:28.879Z,14.53
2022-11-13T05:19:56.598Z,15.77
2022-11-13T05:22:24.715Z,16.37
2022-11-13T05:24:52.383Z,14.40
2022-11-13T05:27:20.142Z,15.17
2022-11-13T05:29:47.824Z,17.07
2022-11-13T05:32:15.529Z,15.93
2022-11-13T05:34:44.530Z,16.87
2022-11-13T05:37:12.195Z,13.60
2022-11-13T05:39:39.969Z,14.73
2022-11-13T05:42:07.811Z,13.83
2022-11-13T05:44:35.498Z,15.03
2022-11-13T05:47:03.180Z,15.27
2022-11-13T05:49:30.864Z,15.07
2022-11-13T05:51:59.877Z,15.57
2022-11-13T05:54:27.588Z,13.03
2022-11-13T05:56:55.283Z,16.07
2022-11-13T05:59:22.996Z,13.60
2022-11-13T06:01:50.694Z,14.87
2022-11-13T06:04:18.489Z,14.70
2022-11-13T06:06:46.191Z,16.53
2022-11-13T06:09:17.240Z,14.87
2022-11-13T06:11:45.164Z,13.43
2022-11-13T06:14:12.876Z,14.23
2022-11-13T06:16:40.845Z,15.37
2022-11-13T06:19:10.536Z,13.43
2022-11-13T06:21:40.306Z,14.40
2022-11-13T06:24:09.305Z,16.20
2022-11-13T06:26:38.827Z,14.53
2022-11-13T06:29:08.606Z,16.40
2022-11-13T06:31:38.245Z,14.17
2022-11-13T06:34:06.766Z,13.60
2022-11-13T06:36:37.136Z,13.43
2022-11-13T06:39:08.396Z,16.87
2022-11-13T06:41:36.503Z,14.00
2022-11-13T06:44:05.890Z,12.73
2022-11-13T06:46:33.613Z,15.13
2022-11-13T06:49:01.408Z,15.60
2022-11-13T06:51:31.187Z,14.23
2022-11-13T06:53:59.294Z,13.97
2022-11-13T06:56:27.584Z,13.77
2022-11-13T06:58:56.051Z,15.73
2022-11-13T07:01:26.837Z,16.87
2022-11-13T07:03:54.658Z,16.50
2022-11-13T07:06:24.425Z,17.37
2022-11-13T07:08:52.501Z,16.07
2022-11-13T07:11:21.935Z,15.07
2022-11-13T07:13:50.242Z,15.53
2022-11-13T07:16:18.820Z,13.87
2022-11-13T07:18:52.093Z,14.70
2022-11-13T07:21:20.496Z,14.20
2022-11-13T07:23:49.397Z,16.23
2022-11-13T07:26:17.332Z,15.23
2022-11-13T07:28:45.092Z,14.87
2022-11-13T07:31:14.040Z,15.70
2022-11-13T07:33:41.938Z,17.43
2022-11-13T07:36:11.801Z,15.40
2022-11-13T07:38:39.529Z,17.87
2022-11-13T07:41:07.744Z,15.93
2022-11-13T07:43:35.735Z,15.97
2022-11-13T07:46:03.482Z,17.53
2022-11-13T07:48:31.600Z,15.83
2022-11-13T07:51:02.531Z,15.67
2022-11-13T07:53:31.995Z,15.07
2022-11-13T07:56:02.639Z,14.77
2022-11-13T07:58:31.756Z,16.53
2022-11-13T08:01:04.255Z,15.87
2022-11-13T08:03:32.078Z,15.30
2022-11-13T08:06:05.060Z,14.93
2022-11-13T08:08:34.840Z,15.60
2022-11-13T08:11:05.728Z,17.43
2022-11-13T08:13:34.239Z,15.50
2022-11-13T08:16:02.655Z,17.93
2022-11-13T08:18:31.573Z,13.47
2022-11-13T08:21:02.217Z,17.73
2022-11-13T08:23:29.959Z,14.83
2022-11-13T08:25:59.252Z,17.00
2022-11-13T08:28:27.170Z,18.07
2022-11-13T08:30:55.043Z,16.43
2022-11-13T08:33:22.744Z,16.07
2022-11-13T08:35:54.592Z,17.60
2022-11-13T08:38:22.347Z,15.43
2022-11-13T08:40:50.187Z,16.73
2022-11-13T08:43:19.550Z,14.67
2022-11-13T08:45:47.990Z,17.17
2022-11-13T08:48:16.074Z,16.60
2022-11-13T08:50:43.823Z,16.73
2022-11-13T08:53:11.776Z,15.83
2022-11-13T08:55:39.453Z,15.83
2022-11-13T08:58:07.153Z,16.27
2022-11-13T09:00:36.221Z,15.90
2022-11-13T09:03:04.426Z,13.50
2022-11-13T09:05:32.096Z,15.10
2022-11-13T09:08:01.389Z,15.90
2022-11-13T09:10:29.880Z,13.43
2022-11-13T09:12:59.076Z,14.43
2022-11-13T09:15:27.116Z,15.80
2022-11-13T09:17:58.843Z,14.53
2022-11-13T09:20:26.832Z,14.80
2022-11-13T09:22:58.921Z,14.87
2022-11-13T09:25:29.397Z,14.77
2022-11-13T09:28:01.807Z,15.17
2022-11-13T09:30:30.738Z,14.37
2022-11-13T09:33:01.694Z,14.33
2022-11-13T09:35:37.640Z,19.13
2022-11-13T09:38:11.588Z,13.83
2022-11-13T09:40:44.577Z,17.07
2022-11-13T09:43:30.592Z,13.97
2022-11-13T09:46:03.266Z,14.93
2022-11-13T09:48:36.312Z,13.00
2022-11-13T09:51:08.978Z,13.93
2022-11-13T09:53:38.785Z,12.70
2022-11-13T09:56:17.051Z,15.13
2022-11-13T09:58:50.148Z,16.77
2022-11-13T10:01:34.680Z,14.17
2022-11-13T10:04:11.972Z,15.97
2022-11-13T10:06:55.655Z,13.93
2022-11-13T10:09:30.931Z,13.03
2022-11-13T10:12:03.247Z,12.97
2022-11-13T10:14:35.203Z,13.97
2022-11-13T10:17:09.361Z,15.00
2022-11-13T10:19:42.915Z,12.33
2022-11-13T10:22:34.420Z,14.50
2022-11-13T10:25:11.583Z,14.60
2022-11-13T10:27:39.479Z,16.57
2022-11-13T10:30:15.652Z,14.43
2022-11-13T10:32:44.773Z,16.07
2022-11-13T10:35:32.898Z,15.83
2022-11-13T10:38:08.117Z,14.60
2022-11-13T10:40:39.199Z,14.93
2022-11-13T10:43:14.210Z,16.83
2022-11-13T10:45:42.273Z,16.83
2022-11-13T10:48:20.564Z,13.37
2022-11-13T10:50:57.477Z,14.13
2022-11-13T10:53:27.652Z,12.00
2022-11-13T10:55:58.358Z,14.80
2022-11-13T10:58:26.526Z,12.97
2022-11-13T11:00:54.496Z,14.83
2022-11-13T11:03:23.905Z,13.17
2022-11-13T11:06:00.608Z,13.97
2022-11-13T11:08:32.448Z,14.27
2022-11-13T11:11:19.763Z,11.87
2022-11-13T11:13:47.900Z,12.17
2022-11-13T11:16:21.116Z,15.43
2022-11-13T11:18:53.745Z,14.37
2022-11-13T11:21:27.568Z,13.67
2022-11-13T11:23:59.683Z,14.73
2022-11-13T11:26:32.635Z,12.00
2022-11-13T11:29:08.078Z,12.47
2022-11-13T11:31:42.717Z,14.00
2022-11-13T11:34:19.031Z,13.13
2022-11-13T11:36:56.251Z,13.57
2022-11-13T11:39:32.541Z,14.93
2022-11-13T11:42:14.699Z,12.97
2022-11-13T11:44:57.425Z,14.07
2022-11-13T11:47:25.220Z,14.10
2022-11-13T11:49:52.953Z,14.57
2022-11-13T11:52:34.125Z,12.80
2022-11-13T11:55:26.682Z,12.70
2022-11-13T11:58:00.589Z,13.80
2022-11-13T12:00:32.709Z,12.50
2022-11-13T12:03:30.046Z,12.93
2022-11-13T12:06:07.977Z,12.63
2022-11-13T12:08:46.086Z,15.07
2022-11-13T12:11:20.765Z,13.33
2022-11-13T12:13:56.421Z,12.77
2022-11-13T12:16:31.100Z,12.83
2022-11-13T12:19:05.419Z,14.10
2022-11-13T12:21:44.652Z,13.27
2022-11-13T12:24:42.375Z,14.50
2022-11-13T12:27:21.302Z,13.13
2022-11-13T12:30:09.915Z,13.30
2022-11-13T12:32:55.953Z,12.57
2022-11-13T12:35:25.861Z,11.90
2022-11-13T12:37:59.373Z,12.97
2022-11-13T12:40:41.207Z,12.57
2022-11-13T12:43:32.073Z,12.47
2022-11-13T12:46:04.974Z,12.90
2022-11-13T12:48:35.796Z,11.52
2022-11-13T12:51:05.918Z,12.20
2022-11-13T12:53:46.663Z,13.20
2022-11-13T12:56:32.045Z,13.40
2022-11-13T12:59:29.158Z,12.93
2022-11-13T13:01:52.877Z,14.43
2022-11-13T13:04:42.687Z,13.45
2022-11-13T13:07:23.060Z,12.65
2022-11-13T13:10:02.578Z,12.70
2022-11-13T13:12:43.274Z,14.13
2022-11-13T13:15:31.196Z,12.83
2022-11-13T13:18:07.182Z,15.77
2022-11-13T13:20:38.362Z,15.00
2022-11-13T13:23:08.721Z,15.40
2022-11-13T13:25:37.729Z,13.87
2022-11-13T13:28:21.570Z,13.93
2022-11-13T13:30:56.270Z,14.37
2022-11-13T13:33:30.344Z,13.57
2022-11-13T13:36:08.739Z,14.17
2022-11-13T13:38:49.346Z,16.40
2022-11-13T13:41:30.270Z,12.87
2022-11-13T13:44:14.603Z,14.33
2022-11-13T13:46:42.932Z,15.90
2022-11-13T13:49:16.140Z,15.37
2022-11-13T13:51:46.322Z,15.50
2022-11-13T13:54:18.468Z,14.90
2022-11-13T13:56:46.356Z,15.63
2022-11-13T13:59:19.336Z,15.13
2022-11-13T14:01:55.629Z,14.73
2022-11-13T14:04:24.680Z,15.97
2022-11-13T14:06:54.582Z,16.57
2022-11-13T14:09:24.810Z,16.07
2022-11-13T14:11:58.625Z,15.03
2022-11-13T14:14:28.521Z,14.53
2022-11-13T14:16:57.916Z,14.73
2022-11-13T14:19:25.646Z,17.87
2022-11-13T14:21:58.252Z,16.00
2022-11-13T14:24:33.606Z,13.47
2022-11-13T14:27:06.547Z,17.00
2022-11-13T14:29:39.793Z,16.00
2022-11-13T14:32:11.462Z,15.27
2022-11-13T14:34:43.623Z,19.67
2022-11-13T14:37:23.054Z,16.00
2022-11-13T14:39:51.785Z,16.77
2022-11-13T14:42:22.550Z,17.87
2022-11-13T14:44:51.671Z,18.30
2022-11-13T14:47:24.846Z,17.90
2022-11-13T14:49:52.929Z,18.23
2022-11-13T14:52:25.684Z,16.03
2022-11-13T14:55:19.041Z,20.83
2022-11-13T14:57:50.001Z,21.20
2022-11-13T15:00:21.007Z,18.33
2022-11-13T15:02:48.744Z,16.33
2022-11-13T15:05:16.462Z,16.90
2022-11-13T15:07:46.432Z,17.13
2022-11-13T15:10:17.335Z,14.83
2022-11-13T15:12:45.071Z,12.60
2022-11-13T15:15:16.265Z,15.27
2022-11-13T15:17:45.863Z,15.33
2022-11-13T15:20:20.049Z,14.43
2022-11-13T15:22:47.941Z,15.00
2022-11-13T15:25:17.559Z,13.70
2022-11-13T15:27:45.550Z,15.87
2022-11-13T15:30:13.891Z,16.00
2022-11-13T15:32:42.091Z,14.53
2022-11-13T15:35:17.841Z,16.97
2022-11-13T15:37:45.840Z,14.23
2022-11-13T15:40:14.491Z,13.70
2022-11-13T15:42:43.707Z,20.00
2022-11-13T15:45:14.977Z,16.27
2022-11-13T15:47:43.118Z,21.37
2022-11-13T15:50:14.467Z,19.60
2022-11-13T15:52:45.715Z,22.00
2022-11-13T15:55:27.411Z,24.07
2022-11-13T15:57:55.485Z,27.23
2022-11-13T16:00:25.819Z,23.33
2022-11-13T16:02:55.684Z,21.50
2022-11-13T16:05:26.430Z,20.43
2022-11-13T16:07:54.587Z,19.27
2022-11-13T16:10:24.967Z,20.27
2022-11-13T16:12:53.622Z,21.60
2022-11-13T16:15:21.551Z,18.90
2022-11-13T16:17:52.881Z,20.47
2022-11-13T16:20:20.845Z,20.80
2022-11-13T16:22:49.939Z,18.20
2022-11-13T16:25:19.197Z,24.17
2022-11-13T16:27:47.414Z,27.47
2022-11-13T16:30:16.721Z,25.73
2022-11-13T16:32:44.430Z,26.67
2022-11-13T16:35:16.761Z,24.77
2022-11-13T16:37:44.766Z,24.73
2022-11-13T16:40:23.066Z,23.37
2022-11-13T16:42:51.579Z,23.67
2022-11-13T16:45:20.612Z,26.40
2022-11-13T16:47:50.420Z,25.30
2022-11-13T16:50:20.082Z,27.13
2022-11-13T16:52:47.791Z,26.20
2022-11-13T16:55:15.584Z,27.30
2022-11-13T16:57:44.631Z,24.63
2022-11-13T17:00:16.115Z,24.80
2022-11-13T17:02:44.769Z,24.57
2022-11-13T17:05:14.300Z,25.17
2022-11-13T17:07:42.271Z,26.10
2022-11-13T17:13:02.012Z,27.67
2022-11-13T17:15:29.775Z,26.80
2022-11-13T17:17:58.775Z,28.37
2022-11-13T17:20:26.653Z,32.33
2022-11-13T17:22:54.470Z,33.57
2022-11-13T17:25:26.357Z,28.03
2022-11-13T17:27:54.097Z,31.60
2022-11-13T17:30:23.562Z,25.13
2022-11-13T17:32:51.267Z,26.90
2022-11-13T17:35:18.967Z,28.63
2022-11-13T17:37:46.741Z,29.20
2022-11-13T17:40:14.463Z,33.90
2022-11-13T17:42:42.330Z,29.77
2022-11-13T17:45:10.680Z,32.13
2022-11-13T17:47:39.767Z,29.17
2022-11-13T17:50:08.465Z,28.43
2022-11-13T17:52:36.230Z,35.40
2022-11-13T17:55:06.186Z,53.40
2022-11-13T17:57:34.210Z,42.27
2022-11-13T18:00:02.162Z,32.90
2022-11-13T18:02:30.586Z,32.07
2022-11-13T18:05:01.491Z,33.17
2022-11-13T18:07:29.683Z,33.90
2022-11-13T18:09:57.852Z,33.07
2022-11-13T18:12:25.622Z,37.47
2022-11-13T18:14:53.423Z,36.07
2022-11-13T18:17:22.095Z,31.20
2022-11-13T18:19:50.548Z,32.57
2022-11-13T18:22:19.740Z,34.20
2022-11-13T18:24:47.579Z,34.17
2022-11-13T18:27:15.650Z,34.20
2022-11-13T18:29:43.435Z,33.87
2022-11-13T18:32:11.250Z,36.57
2022-11-13T18:34:38.986Z,35.03
2022-11-13T18:37:06.701Z,36.50
2022-11-13T18:39:35.771Z,33.87
2022-11-13T18:42:03.528Z,37.47
2022-11-13T18:44:31.328Z,34.57
2022-11-13T18:46:59.061Z,39.17
2022-11-13T18:49:26.802Z,37.87
2022-11-13T18:51:54.617Z,35.47
2022-11-13T18:54:22.414Z,38.53
2022-11-13T18:56:51.521Z,35.10
2022-11-13T18:59:19.260Z,34.50
2022-11-13T19:01:47.121Z,35.23
2022-11-13T19:04:22.990Z,31.67
2022-11-13T19:06:51.907Z,38.17
2022-11-13T19:09:19.950Z,36.90
2022-11-13T19:11:48.197Z,42.33
2022-11-13T19:14:19.262Z,39.77
2022-11-13T19:16:47.012Z,41.90
2022-11-13T19:19:17.576Z,44.87
2022-11-13T19:21:46.598Z,44.28
2022-11-13T19:24:15.110Z,41.83
2022-11-13T19:26:43.677Z,48.27
2022-11-13T19:29:11.993Z,37.47
2022-11-13T19:31:41.450Z,36.10
2022-11-13T19:34:09.292Z,36.83
2022-11-13T19:36:37.770Z,36.30
2022-11-13T19:39:06.105Z,35.80
2022-11-13T19:41:34.263Z,36.30
2022-11-13T19:44:02.072Z,36.67
2022-11-13T19:46:31.972Z,38.30
2022-11-13T19:49:01.178Z,40.70
2022-11-13T19:51:29.451Z,41.10
2022-11-13T19:53:58.926Z,40.97
2022-11-13T19:56:29.091Z,36.83
2022-11-13T19:58:57.448Z,41.80
2022-11-13T20:01:27.639Z,36.17
2022-11-13T20:03:56.228Z,39.43
2022-11-13T20:06:26.152Z,41.47
2022-11-13T20:08:53.984Z,41.83
2022-11-13T20:11:21.740Z,43.93
2022-11-13T20:13:49.604Z,46.73
2022-11-13T20:16:20.953Z,44.90
2022-11-13T20:18:49.528Z,48.20
2022-11-13T20:21:23.203Z,51.10
2022-11-13T20:23:53.542Z,52.40
2022-11-13T20:26:21.276Z,52.47
2022-11-13T20:28:49.074Z,46.70
2022-11-13T20:31:19.587Z,46.77
2022-11-13T20:33:48.240Z,46.20
2022-11-13T20:36:17.019Z,48.70
2022-11-13T20:38:49.415Z,52.03
2022-11-13T20:41:20.544Z,49.73
2022-11-13T20:43:48.782Z,51.30
2022-11-13T20:46:18.382Z,58.33
2022-11-13T20:48:46.634Z,51.13
2022-11-13T20:51:16.171Z,51.23
2022-11-13T20:53:44.575Z,51.77
2022-11-13T20:56:13.111Z,50.87
2022-11-13T20:58:42.624Z,55.10
2022-11-13T21:01:12.810Z,52.10
2022-11-13T21:03:43.225Z,53.73
2022-11-13T21:06:12.126Z,55.73
2022-11-13T21:08:40.031Z,58.63
2022-11-13T21:11:08.744Z,56.37
2022-11-13T21:13:36.411Z,53.97
2022-11-13T21:16:07.783Z,52.13
2022-11-13T21:18:35.865Z,57.90
2022-11-13T21:21:08.188Z,57.27
2022-11-13T21:23:36.185Z,51.20
2022-11-13T21:26:05.921Z,57.40
2022-11-13T21:28:34.209Z,58.33
2022-11-13T21:31:03.151Z,54.40
2022-11-13T21:33:32.260Z,57.57
2022-11-13T21:36:05.610Z,57.10
2022-11-13T21:38:33.701Z,56.83
2022-11-13T21:41:20.350Z,61.30
2022-11-13T21:43:48.249Z,59.80
2022-11-13T21:46:16.040Z,55.97
2022-11-13T21:48:45.372Z,54.80
2022-11-13T21:51:13.255Z,62.93
2022-11-13T21:53:42.739Z,57.33
2022-11-13T21:56:15.373Z,59.77
2022-11-13T21:58:44.205Z,57.87
2022-11-13T22:01:13.169Z,61.23
2022-11-13T22:03:41.380Z,60.87
2022-11-13T22:06:19.839Z,59.60
2022-11-13T22:08:53.754Z,58.77
2022-11-13T22:11:21.513Z,55.87
2022-11-13T22:13:49.267Z,61.57
2022-11-13T22:16:17.437Z,64.30
2022-11-13T22:18:45.587Z,59.87
2022-11-13T22:21:15.437Z,59.60
2022-11-13T22:23:44.470Z,65.43
2022-11-13T22:26:14.246Z,61.90
2022-11-13T22:28:43.350Z,63.23
2022-11-13T22:31:15.334Z,60.70
2022-11-13T22:33:47.756Z,62.53
2022-11-13T22:36:17.645Z,64.33
2022-11-13T22:38:46.708Z,62.40
2022-11-13T22:41:22.608Z,58.43
2022-11-13T22:43:52.745Z,61.20
2022-11-13T22:46:21.999Z,63.33
2022-11-13T22:48:51.183Z,66.90
2022-11-13T22:51:20.788Z,62.63
2022-11-13T22:53:52.607Z,64.53
2022-11-13T22:56:21.558Z,71.60
2022-11-13T22:58:49.881Z,64.20
2022-11-13T23:01:19.690Z,67.60
2022-11-13T23:03:49.073Z,66.37
2022-11-13T23:06:20.509Z,74.07
2022-11-13T23:08:50.390Z,69.93
2022-11-13T23:11:19.715Z,67.67
2022-11-13T23:13:49.145Z,68.37
2022-11-13T23:16:17.534Z,65.07
2022-11-13T23:18:45.744Z,63.30
2022-11-13T23:21:15.497Z,68.10
2022-11-13T23:23:43.600Z,75.67
2022-11-13T23:26:14.242Z,71.43
2022-11-13T23:28:42.529Z,79.93
2022-11-13T23:31:10.542Z,81.90
2022-11-13T23:33:39.191Z,78.83
2022-11-13T23:36:07.901Z,67.93
2022-11-13T23:38:35.902Z,74.10
2022-11-13T23:41:03.877Z,74.00
2022-11-13T23:44:02.120Z,81.77
2022-11-13T23:46:20.652Z,76.10
2022-11-13T23:48:48.362Z,74.10
2022-11-13T23:51:16.835Z,72.30
2022-11-13T23:53:44.557Z,80.70
2022-11-13T23:56:12.482Z,70.73
2022-11-13T23:58:41.508Z,77.63
